createdAt,value
2019-04-05T00:00:57.437Z,4.200745
2019-04-05T00:02:06.940Z,4.200745
2019-04-05T00:03:16.458Z,4.230957
2019-04-05T00:04:25.970Z,4.200745
2019-04-05T00:05:35.469Z,4.170532
2019-04-05T00:06:44.970Z,4.160461
2019-04-05T00:07:54.471Z,4.14032
2019-04-05T00:09:03.993Z,4.14032
2019-04-05T00:10:20.545Z,4.14032
2019-04-05T00:11:30.089Z,4.160461
2019-04-05T00:12:39.626Z,4.160461
2019-04-05T00:13:49.173Z,4.170532
2019-04-05T00:14:58.691Z,4.170532
2019-04-05T00:16:09.215Z,4.170532
2019-04-05T00:17:18.747Z,4.200745
2019-04-05T00:18:28.283Z,4.190674
2019-04-05T00:19:37.809Z,4.190674
2019-04-05T00:20:47.346Z,4.170532
2019-04-05T00:21:56.876Z,4.170532
2019-04-05T00:23:06.408Z,4.14032
2019-04-05T00:24:15.938Z,4.14032
2019-04-05T00:25:25.452Z,4.160461
2019-04-05T00:26:34.986Z,4.160461
2019-04-05T00:27:44.517Z,4.14032
2019-04-05T00:28:54.060Z,4.130249
2019-04-05T00:30:03.653Z,4.14032
2019-04-05T00:31:13.184Z,4.160461
2019-04-05T00:32:22.689Z,4.160461
2019-04-05T00:33:32.219Z,4.170532
2019-04-05T00:34:41.773Z,4.160461
2019-04-05T00:35:51.297Z,4.14032
2019-04-05T00:37:00.844Z,4.14032
2019-04-05T00:38:10.358Z,4.14032
2019-04-05T00:39:19.899Z,4.160461
2019-04-05T00:40:29.402Z,4.14032
2019-04-05T00:41:38.955Z,4.14032
2019-04-05T00:42:48.483Z,4.130249
2019-04-05T00:43:58.011Z,4.120178
2019-04-05T00:45:07.554Z,4.100037
2019-04-05T00:46:18.070Z,4.100037
2019-04-05T00:47:27.604Z,4.059753
2019-04-05T00:48:37.130Z,4.049683
2019-04-05T00:49:46.668Z,4.079895
2019-04-05T00:50:56.195Z,4.079895
2019-04-05T00:52:05.706Z,4.059753
2019-04-05T00:53:15.222Z,4.079895
2019-04-05T00:54:24.777Z,4.079895
2019-04-05T00:55:34.295Z,4.120178
2019-04-05T00:56:43.809Z,4.120178
2019-04-05T00:57:53.353Z,4.14032
2019-04-05T00:59:02.866Z,4.14032
2019-04-05T01:00:12.531Z,4.14032
2019-04-05T01:01:21.949Z,4.14032
2019-04-05T01:02:31.486Z,4.120178
2019-04-05T01:03:41.031Z,4.120178
2019-04-05T01:04:50.603Z,4.079895
2019-04-05T01:06:00.157Z,4.059753
2019-04-05T01:07:09.700Z,4.059753
2019-04-05T01:08:19.231Z,4.079895
2019-04-05T01:09:28.760Z,4.049683
2019-04-05T01:10:38.324Z,4.049683
2019-04-05T01:11:47.837Z,4.049683
2019-04-05T01:12:57.395Z,4.049683
2019-04-05T01:14:06.933Z,4.059753
2019-04-05T01:15:16.500Z,4.059753
2019-04-05T01:16:26.033Z,4.079895
2019-04-05T01:17:35.556Z,4.100037
2019-04-05T01:18:45.078Z,4.049683
2019-04-05T01:19:54.618Z,4.079895
2019-04-05T01:21:04.151Z,4.100037
2019-04-05T01:22:13.702Z,4.100037
2019-04-05T01:23:23.228Z,4.120178
2019-04-05T01:24:32.790Z,4.120178
2019-04-05T01:25:42.345Z,4.120178
2019-04-05T01:26:51.857Z,4.120178
2019-04-05T01:28:01.389Z,4.100037
2019-04-05T01:29:10.879Z,4.100037
2019-04-05T01:30:20.420Z,4.100037
2019-04-05T01:31:29.939Z,4.049683
2019-04-05T01:32:39.502Z,4.059753
2019-04-05T01:33:49.042Z,4.079895
2019-04-05T01:34:59.557Z,4.059753
2019-04-05T01:36:09.081Z,4.079895
2019-04-05T01:37:18.614Z,4.079895
2019-04-05T01:38:28.182Z,4.100037
2019-04-05T01:39:37.708Z,4.100037
2019-04-05T01:40:47.243Z,4.079895
2019-04-05T01:41:56.798Z,4.079895
2019-04-05T01:43:06.326Z,4.079895
2019-04-05T01:44:15.848Z,4.079895
2019-04-05T01:45:25.440Z,4.059753
2019-04-05T01:46:34.931Z,4.079895
2019-04-05T01:47:44.466Z,4.079895
2019-04-05T01:48:54.009Z,4.100037
2019-04-05T01:50:03.547Z,4.120178
2019-04-05T01:51:13.069Z,4.130249
2019-04-05T01:52:22.591Z,4.120178
2019-04-05T01:53:32.119Z,4.120178
2019-04-05T01:54:41.648Z,4.130249
2019-04-05T01:55:51.203Z,4.120178
2019-04-05T01:57:00.717Z,4.100037
2019-04-05T01:58:10.260Z,4.130249
2019-04-05T01:59:19.792Z,4.130249
2019-04-05T02:00:29.361Z,4.130249
2019-04-05T02:01:38.855Z,4.130249
2019-04-05T02:02:48.376Z,4.170532
2019-04-05T02:03:57.920Z,4.160461
2019-04-05T02:05:07.464Z,4.160461
2019-04-05T02:06:17.004Z,4.160461
2019-04-05T02:07:26.556Z,4.160461
2019-04-05T02:08:36.081Z,4.170532
2019-04-05T02:09:45.610Z,4.160461
2019-04-05T02:10:55.141Z,4.160461
2019-04-05T02:12:04.670Z,4.160461
2019-04-05T02:13:14.219Z,4.170532
2019-04-05T02:14:23.754Z,4.160461
2019-04-05T02:15:33.316Z,4.160461
2019-04-05T02:16:42.832Z,4.14032
2019-04-05T02:17:52.356Z,4.120178
2019-04-05T02:19:01.882Z,4.120178
2019-04-05T02:20:11.411Z,4.130249
2019-04-05T02:21:20.969Z,4.120178
2019-04-05T02:22:30.500Z,4.120178
2019-04-05T02:23:40.086Z,4.14032
2019-04-05T02:24:49.602Z,4.130249
2019-04-05T02:25:59.166Z,4.14032
2019-04-05T02:27:08.725Z,4.160461
2019-04-05T02:28:18.242Z,4.160461
2019-04-05T02:29:27.757Z,4.160461
2019-04-05T02:30:37.296Z,4.160461
2019-04-05T02:31:46.829Z,4.170532
2019-04-05T02:32:56.360Z,4.170532
2019-04-05T02:34:05.888Z,4.170532
2019-04-05T02:35:15.420Z,4.190674
2019-04-05T02:36:25.006Z,4.200745
2019-04-05T02:37:34.541Z,4.200745
2019-04-05T02:38:44.075Z,4.220886
2019-04-05T02:39:53.603Z,4.200745
2019-04-05T02:41:03.143Z,4.190674
2019-04-05T02:42:12.676Z,4.190674
2019-04-05T02:43:22.213Z,4.200745
2019-04-05T02:44:31.733Z,4.190674
2019-04-05T02:45:41.282Z,4.190674
2019-04-05T02:46:50.831Z,4.200745
2019-04-05T02:48:00.352Z,4.190674
2019-04-05T02:49:09.870Z,4.190674
2019-04-05T02:50:19.394Z,4.190674
2019-04-05T02:51:28.927Z,4.200745
2019-04-05T02:52:38.485Z,4.190674
2019-04-05T02:53:47.993Z,4.170532
2019-04-05T02:54:57.592Z,4.170532
2019-04-05T02:56:07.153Z,4.170532
2019-04-05T02:57:16.672Z,4.160461
2019-04-05T02:58:26.206Z,4.160461
2019-04-05T02:59:35.733Z,4.160461
2019-04-05T03:00:45.281Z,4.170532
2019-04-05T03:01:54.794Z,4.160461
2019-04-05T03:03:04.351Z,4.170532
2019-04-05T03:04:13.878Z,4.160461
2019-04-05T03:05:23.420Z,4.170532
2019-04-05T03:06:32.985Z,4.190674
2019-04-05T03:07:42.552Z,4.160461
2019-04-05T03:08:52.090Z,4.14032
2019-04-05T03:10:01.658Z,4.14032
2019-04-05T03:11:11.202Z,4.14032
2019-04-05T03:12:20.724Z,4.130249
2019-04-05T03:13:30.282Z,4.120178
2019-04-05T03:14:39.811Z,4.120178
2019-04-05T03:15:49.341Z,4.120178
2019-04-05T03:16:58.904Z,4.120178
2019-04-05T03:18:08.441Z,4.120178
2019-04-05T03:19:18.002Z,4.120178
2019-04-05T03:20:27.512Z,4.130249
2019-04-05T03:21:37.063Z,4.130249
2019-04-05T03:22:46.611Z,4.130249
2019-04-05T03:23:56.141Z,4.130249
2019-04-05T03:25:05.675Z,4.120178
2019-04-05T03:26:15.210Z,4.130249
2019-04-05T03:27:24.742Z,4.130249
2019-04-05T03:28:34.297Z,4.14032
2019-04-05T03:29:43.848Z,4.120178
2019-04-05T03:30:53.356Z,4.120178
2019-04-05T03:32:02.955Z,4.100037
2019-04-05T03:33:12.435Z,4.100037
2019-04-05T03:34:21.971Z,4.079895
2019-04-05T03:35:31.489Z,4.100037
2019-04-05T03:36:41.026Z,4.079895
2019-04-05T03:37:51.545Z,4.120178
2019-04-05T03:39:01.062Z,4.120178
2019-04-05T03:40:10.582Z,4.120178
2019-04-05T03:41:20.132Z,4.100037
2019-04-05T03:42:29.676Z,4.120178
2019-04-05T03:43:39.192Z,4.130249
2019-04-05T03:44:48.732Z,4.14032
2019-04-05T03:45:58.262Z,4.120178
2019-04-05T03:47:07.808Z,4.14032
2019-04-05T03:48:17.318Z,4.14032
2019-04-05T03:49:26.848Z,4.170532
2019-04-05T03:50:36.381Z,4.160461
2019-04-05T03:51:45.913Z,4.160461
2019-04-05T03:52:55.433Z,4.14032
2019-04-05T03:54:04.964Z,4.160461
2019-04-05T03:55:14.497Z,4.14032
2019-04-05T03:56:24.025Z,4.14032
2019-04-05T03:57:33.579Z,4.14032
2019-04-05T03:58:43.107Z,4.130249
2019-04-05T03:59:52.611Z,4.120178
2019-04-05T04:01:02.135Z,4.100037
2019-04-05T04:02:11.673Z,4.100037
2019-04-05T04:03:22.225Z,4.100037
2019-04-05T04:04:31.777Z,4.100037
2019-04-05T04:05:41.308Z,4.120178
2019-04-05T04:06:50.861Z,4.130249
2019-04-05T04:08:00.412Z,4.14032
2019-04-05T04:09:09.910Z,4.14032
2019-04-05T04:10:19.481Z,4.160461
2019-04-05T04:11:29.035Z,4.14032
2019-04-05T04:12:38.577Z,4.130249
2019-04-05T04:13:48.104Z,4.120178
2019-04-05T04:14:57.630Z,4.130249
2019-04-05T04:16:07.152Z,4.160461
2019-04-05T04:17:17.679Z,4.160461
2019-04-05T04:18:27.244Z,4.170532
2019-04-05T04:19:36.767Z,4.160461
2019-04-05T04:20:46.296Z,4.160461
2019-04-05T04:21:55.832Z,4.14032
2019-04-05T04:23:05.355Z,4.160461
2019-04-05T04:24:14.884Z,4.170532
2019-04-05T04:25:25.391Z,4.160461
2019-04-05T04:26:34.915Z,4.160461
2019-04-05T04:27:44.447Z,4.14032
2019-04-05T04:28:53.981Z,4.130249
2019-04-05T04:30:03.520Z,4.120178
2019-04-05T04:31:13.087Z,4.120178
2019-04-05T04:32:22.629Z,4.120178
2019-04-05T04:33:32.163Z,4.130249
2019-04-05T04:34:41.678Z,4.160461
2019-04-05T04:35:51.204Z,4.170532
2019-04-05T04:37:00.750Z,4.190674
2019-04-05T04:38:10.268Z,4.170532
2019-04-05T04:39:19.794Z,4.160461
2019-04-05T04:40:29.346Z,4.170532
2019-04-05T04:41:38.871Z,4.170532
2019-04-05T04:42:48.405Z,4.200745
2019-04-05T04:43:57.932Z,4.200745
2019-04-05T04:45:12.243Z,4.200745
2019-04-05T04:46:17.004Z,4.190674
2019-04-05T04:47:27.444Z,4.190674
2019-04-05T04:48:36.052Z,4.170532
2019-04-05T04:49:45.586Z,4.190674
2019-04-05T04:50:55.192Z,4.170532
2019-04-05T04:52:04.738Z,4.190674
2019-04-05T04:53:14.270Z,4.200745
2019-04-05T04:54:23.799Z,4.230957
2019-04-05T04:55:33.323Z,4.220886
2019-04-05T04:56:42.850Z,4.220886
2019-04-05T04:57:52.400Z,4.230957
2019-04-05T04:59:01.939Z,4.220886
2019-04-05T05:00:11.485Z,4.200745
2019-04-05T05:01:21.040Z,4.200745
2019-04-05T05:02:30.613Z,4.220886
2019-04-05T05:03:40.143Z,4.230957
2019-04-05T05:04:49.679Z,4.241028
2019-04-05T05:05:59.209Z,4.281311
2019-04-05T05:07:08.733Z,4.281311
2019-04-05T05:08:18.272Z,4.281311
2019-04-05T05:09:27.813Z,4.230957
2019-04-05T05:10:37.326Z,4.230957
2019-04-05T05:11:46.886Z,4.220886
2019-04-05T05:12:56.442Z,4.230957
2019-04-05T05:14:05.956Z,4.241028
2019-04-05T05:15:15.498Z,4.261169
2019-04-05T05:16:25.006Z,4.261169
2019-04-05T05:17:38.547Z,4.281311
2019-04-05T05:18:44.046Z,4.301453
2019-04-05T05:19:53.563Z,4.301453
2019-04-05T05:21:03.089Z,4.301453
2019-04-05T05:22:12.618Z,4.301453
2019-04-05T05:23:22.164Z,4.281311
2019-04-05T05:24:31.755Z,4.261169
2019-04-05T05:25:41.220Z,4.261169
2019-04-05T05:26:50.729Z,4.261169
2019-04-05T05:28:00.270Z,4.261169
2019-04-05T05:29:09.840Z,4.241028
2019-04-05T05:30:19.370Z,4.301453
2019-04-05T05:31:28.886Z,4.311523
2019-04-05T05:32:38.428Z,4.311523
2019-04-05T05:33:47.960Z,4.341736
2019-04-05T05:35:02.112Z,4.341736
2019-04-05T05:36:10.187Z,4.351807
2019-04-05T05:37:16.501Z,4.351807
2019-04-05T05:38:26.047Z,4.351807
2019-04-05T05:39:35.606Z,4.371948
2019-04-05T05:40:45.223Z,4.382019
2019-04-05T05:41:54.750Z,4.402161
2019-04-05T05:43:04.304Z,4.422302
2019-04-05T05:44:13.838Z,4.412231
2019-04-05T05:45:23.360Z,4.422302
2019-04-05T05:46:32.918Z,4.442444
2019-04-05T05:47:51.458Z,4.422302
2019-04-05T05:48:53.012Z,4.412231
2019-04-05T05:50:02.570Z,4.412231
2019-04-05T05:51:12.109Z,4.442444
2019-04-05T05:52:21.657Z,4.442444
2019-04-05T05:53:31.183Z,4.442444
2019-04-05T05:54:40.709Z,4.422302
2019-04-05T05:55:50.248Z,4.422302
2019-04-05T05:56:59.762Z,4.452515
2019-04-05T05:58:09.309Z,4.452515
2019-04-05T05:59:18.832Z,4.452515
2019-04-05T06:00:31.006Z,4.422302
2019-04-05T06:01:38.898Z,4.412231
2019-04-05T06:02:48.702Z,4.422302
2019-04-05T06:03:57.986Z,4.442444
2019-04-05T06:05:07.517Z,4.422302
2019-04-05T06:06:17.040Z,4.422302
2019-04-05T06:07:26.566Z,4.412231
2019-04-05T06:08:36.135Z,4.412231
2019-04-05T06:09:47.653Z,4.412231
2019-04-05T06:10:55.205Z,4.412231
2019-04-05T06:12:07.137Z,4.402161
2019-04-05T06:13:41.128Z,4.371948
2019-04-05T06:14:50.632Z,4.341736
2019-04-05T06:16:00.174Z,4.341736
2019-04-05T06:17:09.677Z,4.321594
2019-04-05T06:18:19.204Z,4.321594
2019-04-05T06:19:28.706Z,4.341736
2019-04-05T06:20:38.213Z,4.371948
2019-04-05T06:21:47.720Z,4.382019
2019-04-05T06:22:57.235Z,4.422302
2019-04-05T06:24:06.754Z,4.482727
2019-04-05T06:25:16.275Z,4.502869
2019-04-05T06:26:25.802Z,4.52301
2019-04-05T06:27:35.553Z,4.553223
2019-04-05T06:28:44.886Z,4.583435
2019-04-05T06:29:54.329Z,4.583435
2019-04-05T06:31:03.844Z,4.563293
2019-04-05T06:32:13.341Z,4.633789
2019-04-05T06:33:31.176Z,4.664001
2019-04-05T06:34:33.342Z,4.674072
2019-04-05T06:35:42.846Z,4.684143
2019-04-05T06:36:52.354Z,4.704285
2019-04-05T06:38:01.882Z,4.744568
2019-04-05T06:39:11.372Z,4.744568
2019-04-05T06:40:21.868Z,4.784851
2019-04-05T06:41:32.349Z,4.77478
2019-04-05T06:42:41.872Z,4.77478
2019-04-05T06:43:51.382Z,4.77478
2019-04-05T06:45:00.893Z,4.784851
2019-04-05T06:46:10.398Z,4.804993
2019-04-05T06:47:19.908Z,4.815063
2019-04-05T06:48:29.849Z,4.804993
2019-04-05T06:49:38.938Z,4.784851
2019-04-05T06:50:48.451Z,4.804993
2019-04-05T06:51:57.954Z,4.815063
2019-04-05T06:53:07.481Z,4.855347
2019-04-05T06:54:16.998Z,4.865417
2019-04-05T06:55:26.501Z,4.885559
2019-04-05T06:56:36.013Z,4.925842
2019-04-05T06:57:45.530Z,4.956055
2019-04-05T06:58:55.041Z,4.89563
2019-04-05T07:00:04.547Z,4.885559
2019-04-05T07:01:14.048Z,4.89563
2019-04-05T07:02:23.561Z,4.915771
2019-04-05T07:03:33.067Z,4.915771
2019-04-05T07:04:42.589Z,4.925842
2019-04-05T07:05:52.090Z,4.935913
2019-04-05T07:07:01.600Z,4.956055
2019-04-05T07:08:11.122Z,4.935913
2019-04-05T07:09:20.653Z,4.996338
2019-04-05T07:10:30.129Z,5.036621
2019-04-05T07:11:39.637Z,5.066833
2019-04-05T07:12:49.162Z,5.076904
2019-04-05T07:13:58.681Z,5.117188
2019-04-05T07:15:08.185Z,5.167542
2019-04-05T07:16:17.695Z,5.197754
2019-04-05T07:17:27.218Z,5.227966
2019-04-05T07:18:36.727Z,5.27832
2019-04-05T07:19:46.233Z,5.318604
2019-04-05T07:20:57.829Z,5.379028
2019-04-05T07:22:05.262Z,5.409241
2019-04-05T07:23:14.799Z,5.439453
2019-04-05T07:24:24.373Z,5.479736
2019-04-05T07:25:33.818Z,5.570374
2019-04-05T07:26:43.328Z,5.661011
2019-04-05T07:27:52.840Z,5.731506
2019-04-05T07:29:02.359Z,5.842285
2019-04-05T07:30:11.870Z,5.842285
2019-04-05T07:31:21.390Z,5.912781
2019-04-05T07:32:31.304Z,5.983276
2019-04-05T07:33:40.414Z,6.02356
2019-04-05T07:34:49.926Z,6.083984
2019-04-05T07:35:59.427Z,6.053772
2019-04-05T07:37:08.928Z,6.013489
2019-04-05T07:38:18.444Z,5.932922
2019-04-05T07:39:27.953Z,5.942993
2019-04-05T07:40:37.460Z,5.862427
2019-04-05T07:41:46.971Z,5.802002
2019-04-05T07:42:56.477Z,5.791931
2019-04-05T07:44:06.003Z,5.802002
2019-04-05T07:45:15.510Z,5.832214
2019-04-05T07:46:25.015Z,5.802002
2019-04-05T07:47:34.513Z,5.791931
2019-04-05T07:48:45.377Z,5.822144
2019-04-05T07:49:53.547Z,5.832214
2019-04-05T07:51:03.056Z,5.862427
2019-04-05T07:52:13.113Z,5.842285
2019-04-05T07:53:22.083Z,5.832214
2019-04-05T07:54:31.592Z,5.822144
2019-04-05T07:55:41.089Z,5.862427
2019-04-05T07:56:50.601Z,5.912781
2019-04-05T07:58:00.111Z,5.993347
2019-04-05T07:59:09.625Z,6.053772
2019-04-05T08:00:20.122Z,6.083984
2019-04-05T08:01:29.643Z,6.114197
2019-04-05T08:02:39.142Z,6.053772
2019-04-05T08:03:48.666Z,6.144409
2019-04-05T08:04:59.145Z,6.174622
2019-04-05T08:06:08.647Z,6.144409
2019-04-05T08:07:18.147Z,6.02356
2019-04-05T08:08:27.659Z,6.083984
2019-04-05T08:09:37.189Z,6.144409
2019-04-05T08:10:47.733Z,6.224976
2019-04-05T08:11:57.244Z,6.305542
2019-04-05T08:13:06.750Z,6.376038
2019-04-05T08:14:17.946Z,6.376038
2019-04-05T08:15:25.779Z,6.416321
2019-04-05T08:16:35.307Z,6.486816
2019-04-05T08:17:44.816Z,6.53717
2019-04-05T08:18:57.858Z,6.627808
2019-04-05T08:20:03.826Z,6.688232
2019-04-05T08:21:13.360Z,6.718445
2019-04-05T08:22:23.856Z,6.698303
2019-04-05T08:23:33.354Z,6.77887
2019-04-05T08:24:42.878Z,6.869507
2019-04-05T08:25:52.384Z,6.919861
2019-04-05T08:27:01.894Z,6.950073
2019-04-05T08:28:11.399Z,6.970215
2019-04-05T08:29:20.917Z,6.970215
2019-04-05T08:30:30.420Z,6.990356
2019-04-05T08:31:39.921Z,6.929932
2019-04-05T08:32:49.437Z,6.950073
2019-04-05T08:33:59.023Z,6.929932
2019-04-05T08:35:08.676Z,6.950073
2019-04-05T08:36:18.318Z,7.020569
2019-04-05T08:37:27.823Z,7.131348
2019-04-05T08:38:39.758Z,7.181702
2019-04-05T08:39:46.844Z,7.28241
2019-04-05T08:40:56.414Z,7.181702
2019-04-05T08:42:05.833Z,7.171631
2019-04-05T08:43:15.323Z,7.211914
2019-04-05T08:44:24.833Z,7.352905
2019-04-05T08:45:34.340Z,7.393188
2019-04-05T08:46:43.841Z,7.332764
2019-04-05T08:47:53.346Z,7.362976
2019-04-05T08:49:10.332Z,7.483826
2019-04-05T08:50:12.360Z,7.634888
2019-04-05T08:51:21.865Z,7.614746
2019-04-05T08:52:31.373Z,7.685242
2019-04-05T08:53:40.879Z,7.745667
2019-04-05T08:54:50.392Z,7.765808
2019-04-05T08:55:59.898Z,7.866516
2019-04-05T08:57:09.405Z,7.967224
2019-04-05T08:58:18.905Z,7.967224
2019-04-05T08:59:29.395Z,7.876587
2019-04-05T09:00:38.893Z,7.967224
2019-04-05T09:01:48.407Z,7.977295
2019-04-05T09:02:57.993Z,8.047791
2019-04-05T09:04:07.480Z,8.158569
2019-04-05T09:05:16.941Z,8.279419
2019-04-05T09:06:26.474Z,8.078003
2019-04-05T09:07:35.976Z,8.007507
2019-04-05T09:08:45.481Z,8.047791
2019-04-05T09:09:55.000Z,8.098145
2019-04-05T09:11:04.493Z,8.178711
2019-04-05T09:12:14.014Z,8.299561
2019-04-05T09:13:23.521Z,8.188782
2019-04-05T09:14:33.055Z,8.299561
2019-04-05T09:15:42.562Z,8.380127
2019-04-05T09:16:52.074Z,8.450623
2019-04-05T09:18:01.593Z,8.490906
2019-04-05T09:19:22.944Z,8.581543
2019-04-05T09:20:21.586Z,8.742676
2019-04-05T09:21:31.097Z,8.853455
2019-04-05T09:22:41.584Z,8.813171
2019-04-05T09:23:51.091Z,8.994446
2019-04-05T09:25:00.616Z,8.893738
2019-04-05T09:26:10.120Z,8.782959
2019-04-05T09:27:19.628Z,8.712463
2019-04-05T09:28:29.134Z,8.662109
2019-04-05T09:29:38.682Z,8.662109
2019-04-05T09:30:48.188Z,8.782959
2019-04-05T09:31:57.677Z,8.692322
2019-04-05T09:33:07.186Z,8.823242
2019-04-05T09:34:16.687Z,8.883667
2019-04-05T09:35:26.215Z,8.843384
2019-04-05T09:36:35.728Z,8.873596
2019-04-05T09:37:45.230Z,8.823242
2019-04-05T09:38:54.741Z,8.611755
2019-04-05T09:40:04.270Z,8.581543
2019-04-05T09:41:13.776Z,8.551331
2019-04-05T09:42:23.281Z,8.460693
2019-04-05T09:43:32.790Z,8.359985
2019-04-05T09:44:42.322Z,8.339844
2019-04-05T09:45:51.825Z,8.299561
2019-04-05T09:47:01.340Z,8.329773
2019-04-05T09:48:10.845Z,8.410339
2019-04-05T09:49:20.360Z,8.440552
2019-04-05T09:50:30.888Z,8.42041
2019-04-05T09:51:40.408Z,8.380127
2019-04-05T09:52:49.916Z,8.229065
2019-04-05T09:53:59.417Z,8.178711
2019-04-05T09:55:08.942Z,8.198853
2019-04-05T09:56:18.443Z,8.188782
2019-04-05T09:57:27.958Z,8.118286
2019-04-05T09:58:37.460Z,7.926941
2019-04-05T09:59:46.989Z,7.755737
2019-04-05T10:00:56.498Z,7.755737
2019-04-05T10:02:06.017Z,7.765808
2019-04-05T10:03:15.536Z,7.816162
2019-04-05T10:04:25.029Z,7.78595
2019-04-05T10:05:34.544Z,7.755737
2019-04-05T10:06:44.047Z,7.78595
2019-04-05T10:07:55.060Z,7.846375
2019-04-05T10:09:03.049Z,7.796021
2019-04-05T10:10:12.586Z,7.796021
2019-04-05T10:11:22.107Z,7.866516
2019-04-05T10:12:31.610Z,7.937012
2019-04-05T10:13:41.117Z,8.007507
2019-04-05T10:14:50.673Z,8.088074
2019-04-05T10:16:00.157Z,8.178711
2019-04-05T10:17:09.665Z,8.188782
2019-04-05T10:18:19.162Z,8.229065
2019-04-05T10:19:28.667Z,8.299561
2019-04-05T10:20:39.182Z,8.339844
2019-04-05T10:21:48.688Z,8.380127
2019-04-05T10:22:58.196Z,8.410339
2019-04-05T10:24:07.711Z,8.42041
2019-04-05T10:25:17.236Z,8.440552
2019-04-05T10:26:26.751Z,8.380127
2019-04-05T10:27:36.246Z,8.380127
2019-04-05T10:28:45.751Z,8.339844
2019-04-05T10:29:55.270Z,8.259277
2019-04-05T10:31:04.785Z,8.148499
2019-04-05T10:32:14.282Z,8.088074
2019-04-05T10:33:23.788Z,8.148499
2019-04-05T10:34:33.289Z,8.198853
2019-04-05T10:35:42.826Z,8.229065
2019-04-05T10:36:52.331Z,8.269348
2019-04-05T10:38:01.833Z,8.279419
2019-04-05T10:39:11.343Z,8.299561
2019-04-05T10:40:20.856Z,8.229065
2019-04-05T10:41:30.360Z,8.259277
2019-04-05T10:42:39.867Z,8.309631
2019-04-05T10:43:49.367Z,8.370056
2019-04-05T10:44:58.894Z,8.450623
2019-04-05T10:46:08.396Z,8.521118
2019-04-05T10:47:17.906Z,8.611755
2019-04-05T10:48:27.411Z,8.67218
2019-04-05T10:49:36.913Z,8.732605
2019-04-05T10:50:46.439Z,8.843384
2019-04-05T10:51:55.943Z,8.883667
2019-04-05T10:53:05.449Z,8.813171
2019-04-05T10:54:14.953Z,8.823242
2019-04-05T10:55:24.488Z,8.712463
2019-04-05T10:56:33.987Z,8.742676
2019-04-05T10:57:43.499Z,8.782959
2019-04-05T10:58:53.024Z,8.712463
2019-04-05T11:00:02.514Z,8.782959
2019-04-05T11:01:12.060Z,8.873596
2019-04-05T11:02:21.564Z,8.853455
2019-04-05T11:03:31.067Z,8.893738
2019-04-05T11:04:40.575Z,8.893738
2019-04-05T11:05:50.088Z,8.974304
2019-04-05T11:06:59.598Z,9.024658
2019-04-05T11:08:09.090Z,9.064941
2019-04-05T11:09:18.600Z,9.155579
2019-04-05T11:10:28.134Z,9.286499
2019-04-05T11:11:37.636Z,9.306641
2019-04-05T11:12:49.671Z,9.437561
2019-04-05T11:13:56.632Z,9.457703
2019-04-05T11:15:07.115Z,9.226074
2019-04-05T11:16:16.626Z,8.994446
2019-04-05T11:17:26.135Z,8.913879
2019-04-05T11:18:35.634Z,8.954163
2019-04-05T11:19:46.127Z,8.893738
2019-04-05T11:20:55.652Z,8.974304
2019-04-05T11:22:05.155Z,9.075012
2019-04-05T11:23:14.673Z,9.17572
2019-04-05T11:24:24.166Z,9.105225
2019-04-05T11:25:33.664Z,9.0448
2019-04-05T11:26:43.182Z,9.0448
2019-04-05T11:27:52.692Z,9.095154
2019-04-05T11:29:02.199Z,9.135437
2019-04-05T11:30:11.704Z,9.246216
2019-04-05T11:31:21.220Z,9.356995
2019-04-05T11:32:30.720Z,9.42749
2019-04-05T11:33:40.221Z,9.185791
2019-04-05T11:34:49.731Z,9.034729
2019-04-05T11:35:59.250Z,8.893738
2019-04-05T11:37:08.749Z,8.893738
2019-04-05T11:38:19.240Z,9.034729
2019-04-05T11:39:28.728Z,9.095154
2019-04-05T11:40:38.246Z,9.064941
2019-04-05T11:41:47.754Z,9.024658
2019-04-05T11:42:57.255Z,8.994446
2019-04-05T11:44:06.759Z,8.712463
2019-04-05T11:45:16.266Z,8.853455
2019-04-05T11:46:25.818Z,8.873596
2019-04-05T11:47:35.333Z,8.843384
2019-04-05T11:48:44.838Z,8.712463
2019-04-05T11:49:55.152Z,8.742676
2019-04-05T11:51:03.853Z,8.873596
2019-04-05T11:52:13.357Z,8.944092
2019-04-05T11:53:22.920Z,8.631897
2019-04-05T11:54:32.431Z,8.380127
2019-04-05T11:55:41.951Z,8.380127
2019-04-05T11:56:51.446Z,8.42041
2019-04-05T11:58:00.988Z,8.380127
2019-04-05T11:59:10.490Z,8.511047
2019-04-05T12:00:19.975Z,8.692322
2019-04-05T12:01:29.497Z,8.692322
2019-04-05T12:02:38.997Z,8.79303
2019-04-05T12:03:48.504Z,8.883667
2019-04-05T12:04:58.015Z,9.034729
2019-04-05T12:06:07.535Z,9.155579
2019-04-05T12:07:17.096Z,9.306641
2019-04-05T12:08:27.569Z,9.457703
2019-04-05T12:09:37.069Z,9.608765
2019-04-05T12:10:47.570Z,9.508057
2019-04-05T12:11:57.091Z,9.588623
2019-04-05T12:13:13.964Z,9.638977
2019-04-05T12:14:29.854Z,9.659119
2019-04-05T12:15:33.484Z,9.387207
2019-04-05T12:16:42.534Z,9.256287
2019-04-05T12:17:52.061Z,9.367065
2019-04-05T12:19:04.322Z,9.497986
2019-04-05T12:20:11.105Z,9.608765
2019-04-05T12:21:21.118Z,9.558411
2019-04-05T12:22:30.253Z,9.67926
2019-04-05T12:23:39.793Z,9.840393
2019-04-05T12:24:49.374Z,9.981384
2019-04-05T12:25:58.964Z,10.041809
2019-04-05T12:27:08.507Z,10.192871
2019-04-05T12:28:18.161Z,10.30365
2019-04-05T12:29:27.705Z,10.263367
2019-04-05T12:30:37.302Z,10.354004
2019-04-05T12:31:46.879Z,10.494995
2019-04-05T12:32:56.438Z,10.585632
2019-04-05T12:34:06.991Z,10.464783
2019-04-05T12:35:16.544Z,10.404358
2019-04-05T12:36:26.221Z,10.404358
2019-04-05T12:37:35.750Z,10.484924
2019-04-05T12:38:46.241Z,10.354004
2019-04-05T12:39:55.779Z,10.263367
2019-04-05T12:41:06.320Z,10.253296
2019-04-05T12:42:15.892Z,10.333862
2019-04-05T12:43:25.426Z,10.333862
2019-04-05T12:44:34.953Z,10.354004
2019-04-05T12:45:45.516Z,10.464783
2019-04-05T12:46:55.076Z,10.384216
2019-04-05T12:48:04.667Z,10.354004
2019-04-05T12:49:15.402Z,10.525208
2019-04-05T12:50:24.764Z,10.68634
2019-04-05T12:51:34.371Z,10.887756
2019-04-05T12:52:44.906Z,11.048889
2019-04-05T12:53:56.706Z,11.119385
2019-04-05T12:55:05.065Z,11.139526
2019-04-05T12:56:14.665Z,11.220093
2019-04-05T12:57:25.670Z,11.250305
2019-04-05T12:58:34.762Z,11.230164
2019-04-05T12:59:44.358Z,11.119385
2019-04-05T13:00:56.061Z,11.048889
2019-04-05T13:02:04.461Z,10.887756
2019-04-05T13:03:15.006Z,10.756836
2019-04-05T13:04:24.555Z,10.817261
2019-04-05T13:05:34.140Z,11.048889
2019-04-05T13:06:43.680Z,11.320801
2019-04-05T13:07:54.240Z,11.592712
2019-04-05T13:09:05.509Z,11.653137
2019-04-05T13:10:13.334Z,11.703491
2019-04-05T13:11:26.585Z,11.914978
2019-04-05T13:12:33.498Z,12.166748
2019-04-05T13:13:43.038Z,12.096252
2019-04-05T13:14:53.410Z,12.217102
2019-04-05T13:16:03.108Z,12.468872
2019-04-05T13:17:12.662Z,12.529297
2019-04-05T13:18:24.930Z,13.153687
2019-04-05T13:19:33.238Z,13.19397
2019-04-05T13:20:42.268Z,13.093262
2019-04-05T13:21:51.805Z,13.083191
2019-04-05T13:23:06.297Z,12.720642
2019-04-05T13:24:11.898Z,12.680359
2019-04-05T13:25:22.967Z,12.650146
2019-04-05T13:26:30.977Z,12.348022
2019-04-05T13:27:42.176Z,12.368164
2019-04-05T13:28:51.086Z,12.428589
2019-04-05T13:30:00.671Z,12.529297
2019-04-05T13:31:10.207Z,12.650146
2019-04-05T13:32:22.267Z,12.760925
2019-04-05T13:33:29.301Z,13.153687
2019-04-05T13:34:38.878Z,14.170837
2019-04-05T13:35:48.422Z,15.026855
2019-04-05T13:36:59.241Z,15.147705
2019-04-05T13:38:08.520Z,15.570679